Terminal Aerodrome Forecast
Issued by NWS Missoula, MT

Home | Current Version | Previous Version | Text Only | Print | Product List | Glossary On
Versions: 1 2 3 4 5 6 7 8 9 10 11 12 13 14 15 16 17 18
000
FTUS45 KMSO 221700
TAFBTM
TAF
KBTM 221720Z 2218/2318 14006KT P6SM SCT120
     FM222100 22008G18KT P6SM VCTS BKN070 BKN090CB
     FM230000 24007KT P6SM VCSH BKN120=

USA.gov is the U.S. government's official web portal to all federal, state and local government web resources and services.